Time;durP1;ratioP1;P1;durP2;ratioP2;P2;SDS_P1;SDS_P2;PMS_P1;PMS_P2;Temp;Humidity;BMP_temperature;BMP_pressure;BME280_temperature;BME280_humidity;BME280_pressure;Samples;Min_cycle;Max_cycle;Signal;HPM_P1;HPM_P2
2022/08/20 00:02:47;;;;;;;9.05;5.28;;;;;;;23.33;100.00;98530.59;2184907;81;21002;-85
2022/08/20 00:05:48;;;;;;;10.63;4.45;;;;;;;23.27;100.00;98537.78;2185190;81;21153;-86
2022/08/20 00:08:49;;;;;;;7.33;4.75;;;;;;;23.14;100.00;98519.62;2185327;81;21009;-86
2022/08/20 00:11:50;;;;;;;9.63;4.90;;;;;;;22.75;100.00;98493.09;2185271;81;20977;-86
2022/08/20 00:14:51;;;;;;;5.95;5.05;;;;;;;22.75;100.00;98493.09;2185325;80;20985;-86
2022/08/20 00:17:52;;;;;;;7.90;4.55;;;;;;;22.60;100.00;98504.01;2185194;81;20965;-86
2022/08/20 00:20:53;;;;;;;6.97;4.55;;;;;;;22.42;100.00;98489.81;2185215;80;21548;-86
2022/08/20 00:23:53;;;;;;;6.25;5.15;;;;;;;22.31;100.00;98482.81;2184976;81;20939;-86
2022/08/20 00:26:54;;;;;;;9.20;4.80;;;;;;;22.20;100.00;98482.50;2185250;81;21089;-86
2022/08/20 00:29:55;;;;;;;7.17;4.33;;;;;;;22.07;100.00;98486.45;2185126;81;20997;-86
2022/08/20 00:32:56;;;;;;;9.28;4.17;;;;;;;21.99;100.00;98494.38;2185176;81;20970;-86
2022/08/20 00:35:57;;;;;;;5.58;3.98;;;;;;;21.92;100.00;98499.66;2185112;81;21063;-86
2022/08/20 00:38:58;;;;;;;5.87;3.98;;;;;;;21.82;100.00;98483.89;2185395;80;21032;-86
2022/08/20 00:41:58;;;;;;;10.75;4.53;;;;;;;21.74;100.00;98471.58;2185159;80;21009;-87
2022/08/20 00:44:59;;;;;;;7.40;3.80;;;;;;;21.66;100.00;98462.20;2185303;81;21014;-86
2022/08/20 00:48:00;;;;;;;5.33;3.80;;;;;;;21.62;100.00;98448.34;2185257;81;21151;-86
2022/08/20 00:51:01;;;;;;;8.45;4.10;;;;;;;21.56;100.00;98442.97;2185222;81;21028;-85
2022/08/20 00:54:01;;;;;;;9.73;3.90;;;;;;;21.55;100.00;98453.88;2185374;80;21034;-85
2022/08/20 00:57:02;;;;;;;5.42;3.80;;;;;;;21.57;100.00;98462.41;2185138;80;21056;-85
2022/08/20 01:00:03;;;;;;;5.85;3.72;;;;;;;21.60;100.00;98459.25;2184842;81;21000;-86
2022/08/20 01:03:04;;;;;;;6.80;3.85;;;;;;;21.65;100.00;98471.79;2184818;80;20990;-86
2022/08/20 01:06:05;;;;;;;7.28;4.03;;;;;;;21.70;100.00;98458.52;2184777;81;21482;-86
2022/08/20 01:09:05;;;;;;;6.25;3.90;;;;;;;21.76;100.00;98450.30;2184999;81;21009;-86
2022/08/20 01:12:06;;;;;;;7.55;3.77;;;;;;;21.78;100.00;98450.84;2185233;81;21020;-86
2022/08/20 01:15:08;;;;;;;5.72;3.77;;;;;;;21.81;100.00;98450.84;2184809;80;21008;-85
2022/08/20 01:18:09;;;;;;;9.03;4.42;;;;;;;21.84;100.00;98458.31;2185338;81;21013;-85
2022/08/20 01:21:10;;;;;;;8.95;3.85;;;;;;;21.88;100.00;98487.93;2185358;81;20985;-86
2022/08/20 01:24:11;;;;;;;13.43;4.17;;;;;;;21.96;100.00;98525.56;2183953;81;21005;-86
2022/08/20 01:27:12;;;;;;;14.53;5.17;;;;;;;22.02;100.00;98521.84;2185468;81;20995;-86
2022/08/20 01:30:12;;;;;;;9.68;4.10;;;;;;;21.99;100.00;98543.69;2185253;81;21010;-86
2022/08/20 01:33:13;;;;;;;15.58;6.00;;;;;;;21.94;100.00;98543.65;2185290;81;21010;-86
2022/08/20 01:36:14;;;;;;;16.97;5.90;;;;;;;21.85;100.00;98521.20;2185251;80;21068;-86
2022/08/20 01:39:15;;;;;;;18.02;6.12;;;;;;;21.71;100.00;98485.42;2185223;81;21021;-86
2022/08/20 01:42:15;;;;;;;13.90;6.33;;;;;;;21.67;100.00;98478.98;2185377;81;20945;-85
2022/08/20 01:45:16;;;;;;;10.70;5.42;;;;;;;21.63;100.00;98455.27;2185082;81;21017;-86
2022/08/20 01:48:17;;;;;;;9.13;5.17;;;;;;;21.50;100.00;98437.88;2185157;81;21545;-86
2022/08/20 01:51:17;;;;;;;9.60;5.22;;;;;;;21.31;100.00;98431.36;2185352;81;20963;-86
2022/08/20 01:54:18;;;;;;;10.58;4.90;;;;;;;21.26;100.00;98430.75;2185327;81;20988;-86
2022/08/20 01:57:19;;;;;;;11.73;4.97;;;;;;;21.33;100.00;98428.71;2185343;81;20981;-86
2022/08/20 02:00:20;;;;;;;10.60;6.15;;;;;;;21.27;100.00;98413.22;2182240;81;20965;-86
2022/08/20 02:03:20;;;;;;;13.22;6.10;;;;;;;21.10;100.00;98395.23;2185459;81;21487;-86
2022/08/20 02:06:24;;;;;;;15.10;8.38;;;;;;;20.86;100.00;98381.48;2185448;81;21045;-86
2022/08/20 02:09:24;;;;;;;11.20;6.40;;;;;;;20.64;100.00;98379.42;2185131;81;21001;-86
2022/08/20 02:12:24;;;;;;;13.68;7.45;;;;;;;20.50;100.00;98377.70;2185414;81;21020;-86
2022/08/20 02:15:25;;;;;;;11.40;6.60;;;;;;;20.39;100.00;98371.96;2185139;81;21093;-87
2022/08/20 02:18:26;;;;;;;10.05;5.70;;;;;;;20.26;100.00;98363.88;2185401;81;21076;-86
2022/08/20 02:21:27;;;;;;;8.48;4.53;;;;;;;20.21;100.00;98357.69;2185293;81;21043;-86
2022/08/20 02:24:28;;;;;;;10.00;4.87;;;;;;;20.22;100.00;98359.32;2185505;81;21492;-86
2022/08/20 02:27:29;;;;;;;11.15;5.50;;;;;;;20.25;100.00;98360.94;2185186;81;21051;-86
2022/08/20 02:30:32;;;;;;;12.30;4.95;;;;;;;20.29;100.00;98359.38;2185401;80;21336;-86
2022/08/20 02:33:32;;;;;;;16.17;5.67;;;;;;;20.29;100.00;98359.90;2185420;80;21077;-85
2022/08/20 02:36:35;;;;;;;10.45;4.60;;;;;;;20.36;100.00;98363.97;2185216;81;21073;-86
2022/08/20 02:39:35;;;;;;;6.90;5.35;;;;;;;20.39;100.00;98360.83;2185237;81;21020;-87
2022/08/20 02:42:37;;;;;;;13.90;6.05;;;;;;;20.45;100.00;98362.49;2185116;81;21071;-87
2022/08/20 02:45:42;;;;;;;13.35;5.62;;;;;;;20.47;100.00;98360.91;2185021;81;20984;-85
2022/08/20 02:48:41;;;;;;;11.75;5.25;;;;;;;20.56;100.00;98363.91;2184867;81;21066;-85
2022/08/20 02:51:42;;;;;;;11.88;5.90;;;;;;;20.55;100.00;98361.78;2185310;81;20990;-86
2022/08/20 02:54:42;;;;;;;13.05;5.97;;;;;;;20.50;100.00;98360.95;2185450;81;21225;-86
2022/08/20 02:57:43;;;;;;;11.83;5.25;;;;;;;20.51;100.00;98364.69;2185308;81;21084;-86
2022/08/20 03:00:44;;;;;;;11.57;5.40;;;;;;;20.54;100.00;98361.52;2185274;81;21040;-86
2022/08/20 03:03:45;;;;;;;8.03;5.95;;;;;;;20.61;100.00;98363.97;2185604;80;21001;-85
2022/08/20 03:06:45;;;;;;;14.15;6.40;;;;;;;20.57;100.00;98359.67;2185352;81;20951;-86
2022/08/20 03:09:46;;;;;;;18.52;13.30;;;;;;;20.58;100.00;98354.66;2185550;81;21002;-86
2022/08/20 03:12:47;;;;;;;21.15;14.23;;;;;;;20.46;100.00;98357.98;2184916;81;21050;-85
2022/08/20 03:15:48;;;;;;;21.62;11.15;;;;;;;20.35;100.00;98361.56;2185350;81;21045;-86
2022/08/20 03:18:48;;;;;;;13.08;8.25;;;;;;;20.27;100.00;98364.14;2185342;81;21004;-85
2022/08/20 03:21:49;;;;;;;13.78;7.80;;;;;;;20.11;100.00;98362.37;2185481;81;20957;-85
2022/08/20 03:24:50;;;;;;;14.73;7.87;;;;;;;19.96;100.00;98368.86;2185322;81;21056;-85
2022/08/20 03:27:51;;;;;;;16.02;7.75;;;;;;;19.84;100.00;98371.13;2185379;81;21020;-86
2022/08/20 03:30:52;;;;;;;11.50;8.10;;;;;;;19.85;100.00;98366.62;2185077;81;20952;-86
2022/08/20 03:33:52;;;;;;;13.25;9.05;;;;;;;19.89;100.00;98363.73;2185123;81;20985;-85
2022/08/20 03:36:53;;;;;;;14.43;8.50;;;;;;;19.95;100.00;98366.73;2185257;81;20958;-86
2022/08/20 03:39:54;;;;;;;11.40;8.18;;;;;;;19.96;100.00;98371.52;2185304;80;21104;-85
2022/08/20 03:42:54;;;;;;;16.17;7.90;;;;;;;19.94;100.00;98375.77;2185391;80;21000;-86
2022/08/20 03:45:55;;;;;;;11.68;7.45;;;;;;;19.95;100.00;98366.73;2185265;80;21523;-86
2022/08/20 03:48:56;;;;;;;11.12;7.95;;;;;;;19.96;100.00;98374.18;2185114;81;21085;-84
2022/08/20 03:51:57;;;;;;;17.02;9.00;;;;;;;19.95;100.00;98377.89;2185304;81;21544;-85
2022/08/20 03:54:58;;;;;;;15.38;7.95;;;;;;;19.96;100.00;98376.31;2185356;81;21474;-85
2022/08/20 03:57:58;;;;;;;10.70;7.50;;;;;;;20.03;100.00;98380.91;2185098;81;21132;-85
2022/08/20 04:00:59;;;;;;;14.05;8.80;;;;;;;20.09;100.00;98376.44;2184904;81;21505;-85
2022/08/20 04:04:00;;;;;;;12.88;7.78;;;;;;;20.09;100.00;98381.75;2185210;81;21077;-86
2022/08/20 04:07:01;;;;;;;13.88;8.00;;;;;;;20.10;100.00;98376.19;2184772;81;20955;-85
2022/08/20 04:10:02;;;;;;;12.75;7.47;;;;;;;20.22;100.00;98376.59;2184819;81;20977;-85
2022/08/20 04:13:02;;;;;;;10.78;7.60;;;;;;;20.33;100.00;98373.78;2184947;80;21013;-84
2022/08/20 04:16:07;;;;;;;9.95;6.53;;;;;;;20.38;100.00;98370.36;2185259;80;20969;-85
2022/08/20 04:19:06;;;;;;;14.18;9.35;;;;;;;20.29;100.00;98371.86;2184809;80;21012;-86
2022/08/20 04:22:07;;;;;;;13.45;7.30;;;;;;;20.27;100.00;98377.44;2185192;81;21504;-85
2022/08/20 04:25:07;;;;;;;10.88;7.47;;;;;;;20.34;100.00;98368.74;2184956;81;21060;-87
2022/08/20 04:28:08;;;;;;;12.05;8.15;;;;;;;20.29;100.00;98370.53;2184948;81;21096;-87
2022/08/20 04:31:11;;;;;;;14.50;8.75;;;;;;;20.20;100.00;98374.69;2184904;81;21009;-87
2022/08/20 04:34:12;;;;;;;14.70;8.65;;;;;;;20.22;100.00;98372.08;2184886;81;20999;-88
2022/08/20 04:37:12;;;;;;;14.30;7.75;;;;;;;20.32;100.00;98360.22;2185155;81;21529;-87
2022/08/20 04:43:32;;;;;;;11.57;8.20;;;;;;;20.55;100.00;98387.58;2185302;81;21032;-87
2022/08/20 04:46:33;;;;;;;13.08;7.97;;;;;;;20.71;100.00;98395.45;2185279;81;21032;-87
2022/08/20 04:49:34;;;;;;;20.20;9.80;;;;;;;20.89;100.00;98390.28;2185270;80;21015;-86
2022/08/20 04:52:36;;;;;;;12.10;7.45;;;;;;;21.08;100.00;98396.02;2185084;81;21062;-88
2022/08/20 04:55:38;;;;;;;13.15;8.23;;;;;;;21.24;100.00;98400.40;2185100;81;21025;-87
2022/08/20 04:58:39;;;;;;;11.97;7.55;;;;;;;21.43;100.00;98402.14;2185145;81;21058;-89
2022/08/20 05:01:39;;;;;;;12.13;7.53;;;;;;;21.62;100.00;98411.05;2184937;81;20990;-89
2022/08/20 05:04:40;;;;;;;9.30;7.30;;;;;;;21.83;100.00;98402.88;2185221;81;21018;-88
2022/08/20 05:07:41;;;;;;;10.05;6.53;;;;;;;22.05;100.00;98396.59;2185114;81;21017;-88
2022/08/20 05:10:42;;;;;;;13.03;7.08;;;;;;;22.24;100.00;98397.75;2185060;81;20957;-88
2022/08/20 05:13:42;;;;;;;8.60;7.15;;;;;;;22.49;100.00;98397.52;2185024;81;21002;-87
2022/08/20 05:16:43;;;;;;;10.95;7.25;;;;;;;22.77;100.00;98397.55;2185310;81;21434;-87
2022/08/20 05:19:46;;;;;;;8.95;6.40;;;;;;;23.06;100.00;98392.53;2185054;81;21567;-89
2022/08/20 05:22:46;;;;;;;11.85;6.78;;;;;;;23.26;100.00;98392.50;2185137;81;21035;-88
2022/08/20 05:25:50;;;;;;;9.73;6.47;;;;;;;23.51;100.00;98383.11;2185198;81;20980;-88
2022/08/20 05:28:51;;;;;;;11.20;6.65;;;;;;;23.66;100.00;98378.27;2185193;80;21057;-88
2022/08/20 05:31:55;;;;;;;11.48;6.97;;;;;;;23.78;100.00;98377.44;2184609;80;21012;-87
2022/08/20 05:34:56;;;;;;;10.63;6.97;;;;;;;23.88;100.00;98366.45;2184933;81;21182;-87
2022/08/20 05:37:57;;;;;;;10.78;7.00;;;;;;;24.08;100.00;98372.48;2185139;80;21028;-88
2022/08/20 05:40:58;;;;;;;10.23;6.40;;;;;;;24.00;100.00;98369.59;2185278;80;21008;-89
2022/08/20 05:44:01;;;;;;;6.00;5.40;;;;;;;23.81;100.00;98358.17;2184819;81;20992;-89
2022/08/20 05:47:03;;;;;;;8.23;6.55;;;;;;;23.81;100.00;98358.17;2185257;81;21104;-88
2022/08/20 05:50:04;;;;;;;19.42;9.25;;;;;;;23.60;100.00;98352.66;2185168;81;20981;-88
2022/08/20 05:53:05;;;;;;;14.98;11.10;;;;;;;23.54;100.00;98347.02;2185516;81;21012;-89
2022/08/20 05:56:05;;;;;;;12.75;7.90;;;;;;;23.44;100.00;98340.37;2185164;80;20960;-87
2022/08/20 05:59:06;;;;;;;13.15;8.63;;;;;;;23.36;100.00;98331.58;2185178;81;21053;-88
2022/08/20 06:04:23;;;;;;;10.40;7.15;;;;;;;23.36;100.00;98332.92;2185826;80;21026;-88
2022/08/20 06:05:09;;;;;;;17.52;6.40;;;;;;;23.40;100.00;98338.77;2180571;81;21005;-86
2022/08/20 06:08:10;;;;;;;8.73;7.87;;;;;;;23.40;100.00;98333.96;2185490;81;21068;-86
2022/08/20 06:11:11;;;;;;;9.83;7.35;;;;;;;23.26;100.00;98346.56;2185187;81;21045;-87
2022/08/20 06:14:12;;;;;;;8.48;6.65;;;;;;;23.33;100.00;98350.30;2185360;81;20967;-87
2022/08/20 06:17:12;;;;;;;10.50;7.25;;;;;;;23.46;100.00;98347.58;2179514;81;21001;-87
2022/08/20 06:20:13;;;;;;;14.18;8.45;;;;;;;23.56;100.00;98342.20;2175378;81;20950;-86
2022/08/20 06:23:14;;;;;;;11.65;7.72;;;;;;;23.68;100.00;98336.56;2180316;81;21279;-87
2022/08/20 06:26:15;;;;;;;13.18;7.80;;;;;;;23.74;100.00;98338.95;2185527;81;21500;-85
2022/08/20 06:29:16;;;;;;;12.07;8.38;;;;;;;23.83;100.00;98341.31;2185291;81;21024;-85
2022/08/20 06:32:17;;;;;;;9.10;8.23;;;;;;;24.05;100.00;98332.14;2185544;81;21494;-87
2022/08/20 06:35:17;;;;;;;13.30;7.60;;;;;;;24.27;100.00;98328.52;2185299;81;20950;-83
2022/08/20 06:38:19;;;;;;;9.55;6.85;;;;;;;24.49;100.00;98334.00;2185408;81;21002;-88
2022/08/20 06:41:22;;;;;;;11.30;7.62;;;;;;;24.76;100.00;98337.00;2184890;81;21113;-87
2022/08/20 06:44:23;;;;;;;9.10;7.42;;;;;;;24.99;100.00;98343.50;2185257;81;20966;-86
2022/08/20 06:47:24;;;;;;;10.60;7.78;;;;;;;25.17;100.00;98349.52;2185357;81;21607;-86
2022/08/20 06:50:27;;;;;;;8.10;7.28;;;;;;;25.39;100.00;98354.37;2185252;80;21508;-85
2022/08/20 06:53:27;;;;;;;11.80;7.30;;;;;;;25.57;100.00;98354.17;2185453;81;21001;-87
2022/08/20 06:56:31;;;;;;;11.55;6.50;;;;;;;25.69;100.00;98357.78;2185329;81;21046;-85
2022/08/20 06:59:32;;;;;;;8.88;5.87;;;;;;;25.74;100.00;98365.81;2185405;81;21024;-86
2022/08/20 07:02:34;;;;;;;8.53;7.45;;;;;;;25.72;100.00;98368.78;2185391;81;20961;-91
2022/08/20 07:05:35;;;;;;;8.88;6.62;;;;;;;25.95;100.00;98360.44;2185311;80;21020;-84
2022/08/20 07:08:36;;;;;;;11.40;7.30;;;;;;;26.22;100.00;98371.88;2185283;81;21546;-85
2022/08/20 07:11:37;;;;;;;8.70;6.58;;;;;;;26.50;100.00;98369.37;2218169;80;20954;-84
2022/08/20 07:14:37;;;;;;;11.30;6.55;;;;;;;26.67;100.00;98377.70;2201075;80;20965;-87
2022/08/20 07:17:41;;;;;;;8.20;6.12;;;;;;;26.78;100.00;98381.02;2185065;81;21020;-86
2022/08/20 07:20:44;;;;;;;8.90;6.65;;;;;;;26.89;100.00;98373.06;2184615;81;21454;-85
2022/08/20 07:23:44;;;;;;;7.62;6.22;;;;;;;27.05;100.00;98373.07;2184351;81;21057;-87
2022/08/20 07:26:45;;;;;;;12.35;7.75;;;;;;;27.25;100.00;98377.83;2184486;81;21038;-85
2022/08/20 07:36:07;;;;;;;9.53;7.35;;;;;;;27.54;100.00;98374.90;2067744;86;21096;-88
2022/08/20 07:39:08;;;;;;;16.17;7.33;;;;;;;27.65;100.00;98381.67;2065233;86;21064;-86
2022/08/20 07:42:09;;;;;;;8.93;7.15;;;;;;;27.77;100.00;98378.74;2067641;86;21044;-83
2022/08/20 07:45:10;;;;;;;8.28;6.72;;;;;;;27.87;100.00;98378.29;2067718;86;20997;-83
2022/08/20 07:48:12;;;;;;;13.32;7.83;;;;;;;27.93;100.00;98374.41;2045623;86;21100;-86
2022/08/20 07:51:15;;;;;;;10.08;7.62;;;;;;;27.95;100.00;98376.24;2067352;86;21647;-88
2022/08/20 07:54:16;;;;;;;8.83;7.05;;;;;;;28.04;100.00;98383.30;2067998;86;21133;-86
2022/08/20 07:57:17;;;;;;;7.92;7.17;;;;;;;28.19;100.00;98380.84;2068004;86;21076;-86
2022/08/20 08:00:21;;;;;;;13.70;7.55;;;;;;;28.36;100.00;98380.23;2067868;86;21639;-86
2022/08/20 08:03:21;;;;;;;12.68;8.10;;;;;;;28.45;100.00;98380.31;2068072;85;21074;-86
2022/08/20 08:06:22;;;;;;;12.82;9.08;;;;;;;28.53;100.00;98388.46;2067859;86;21084;-86
2022/08/20 08:09:23;;;;;;;15.43;13.68;;;;;;;28.48;100.00;98390.46;2067763;86;21013;-84
2022/08/20 08:12:24;;;;;;;13.48;8.83;;;;;;;28.51;100.00;98393.88;2067094;86;21498;-85
2022/08/20 08:15:24;;;;;;;9.90;8.53;;;;;;;28.53;100.00;98381.73;2067350;86;21627;-88
2022/08/20 08:18:26;;;;;;;9.70;7.70;;;;;;;28.58;100.00;98372.72;2067219;86;21028;-89
2022/08/20 08:21:28;;;;;;;9.03;8.13;;;;;;;28.58;100.00;98369.48;2067463;86;21058;-90
2022/08/20 08:24:29;;;;;;;12.07;8.30;;;;;;;28.56;100.00;98375.72;2067625;86;21001;-91
2022/08/20 08:27:34;;;;;;;10.75;8.03;;;;;;;28.58;100.00;98367.34;2067768;85;21049;-86
2022/08/20 08:30:35;;;;;;;11.38;8.15;;;;;;;28.57;100.00;98361.70;2085430;85;21097;-88
2022/08/20 08:33:36;;;;;;;9.38;8.08;;;;;;;28.55;100.00;98352.59;2163468;81;21161;-87
2022/08/20 08:36:38;;;;;;;10.63;8.70;;;;;;;28.52;100.00;98354.53;2184908;81;21056;-86
2022/08/20 08:39:38;;;;;;;14.53;9.08;;;;;;;28.48;100.00;98361.64;2184878;80;21095;-86
2022/08/20 08:42:40;;;;;;;11.83;8.75;;;;;;;28.51;100.00;98361.02;2185417;81;20954;-86
2022/08/20 08:45:44;;;;;;;9.88;8.65;;;;;;;28.47;100.00;98361.39;2185069;81;21547;-86
2022/08/20 08:48:44;;;;;;;10.80;8.65;;;;;;;28.45;100.00;98362.81;2184886;80;21034;-87
2022/08/20 08:51:47;;;;;;;15.78;9.90;;;;;;;28.42;100.00;98358.02;2184446;81;21077;-86
2022/08/20 08:54:48;;;;;;;9.38;8.40;;;;;;;28.46;100.00;98358.46;2185407;81;21458;-86
2022/08/20 08:57:49;;;;;;;12.63;9.15;;;;;;;28.52;100.00;98352.39;2185449;81;21018;-87
2022/08/20 09:00:50;;;;;;;12.68;9.05;;;;;;;28.56;100.00;98352.04;2185861;81;20970;-85
2022/08/20 09:03:51;;;;;;;11.90;8.45;;;;;;;28.59;100.00;98354.91;2185036;81;21012;-89
2022/08/20 09:06:52;;;;;;;13.35;9.28;;;;;;;28.60;100.00;98351.66;2185086;81;21012;-86
2022/08/20 09:09:53;;;;;;;10.70;9.00;;;;;;;28.66;100.00;98343.72;2184839;81;21004;-89
2022/08/20 09:12:53;;;;;;;10.45;8.93;;;;;;;28.75;100.00;98347.26;2185311;80;20957;-87
2022/08/20 09:16:05;;;;;;;11.45;9.28;;;;;;;28.84;100.00;98348.11;2090873;85;21036;-88
2022/08/20 09:19:04;;;;;;;10.45;9.40;;;;;;;28.96;100.00;98339.48;2089199;85;21080;-86
2022/08/20 09:22:07;;;;;;;10.58;9.58;;;;;;;29.07;100.00;98348.89;2087162;85;21072;-85
2022/08/20 09:25:09;;;;;;;10.10;8.68;;;;;;;29.21;100.00;98350.16;2090384;85;21580;-91
2022/08/20 09:28:26;;;;;;;9.00;8.10;;;;;;;29.30;100.00;98347.50;2090038;83;21149;-88
2022/08/20 09:31:27;;;;;;;10.03;8.68;;;;;;;29.35;100.00;98348.70;2069428;85;21080;-84
2022/08/20 09:34:28;;;;;;;11.30;9.03;;;;;;;29.34;100.00;98347.91;2092470;85;21549;-86
2022/08/20 09:37:32;;;;;;;9.90;8.88;;;;;;;29.43;100.00;98348.73;2091903;85;21020;-86
2022/08/20 09:40:34;;;;;;;12.13;8.85;;;;;;;29.54;100.00;98358.74;2084585;85;20998;-90
2022/08/20 09:43:34;;;;;;;9.90;8.90;;;;;;;29.59;100.00;98355.89;2093049;85;21008;-86
2022/08/20 09:46:35;;;;;;;12.43;8.80;;;;;;;29.65;100.00;98356.55;2093748;85;21032;-87
2022/08/20 09:49:39;;;;;;;9.83;8.88;;;;;;;29.65;100.00;98355.99;2093359;85;20993;-86
2022/08/20 09:52:40;;;;;;;12.90;9.45;;;;;;;29.68;100.00;98356.70;2092754;85;21185;-87
2022/08/20 09:55:41;;;;;;;18.25;8.75;;;;;;;29.79;100.00;98363.16;2088344;85;21057;-88
2022/08/20 09:58:41;;;;;;;12.07;9.80;;;;;;;29.91;100.00;98359.31;2063214;86;21023;-87
2022/08/20 10:01:42;;;;;;;8.38;7.67;;;;;;;30.12;100.00;98347.38;2062361;85;21040;-89
2022/08/20 10:04:43;;;;;;;10.98;9.53;;;;;;;30.33;100.00;98351.03;2063076;85;21134;-87
2022/08/20 10:07:47;;;;;;;8.65;7.70;;;;;;;30.45;100.00;98349.04;2062828;86;21070;-89
2022/08/20 10:10:46;;;;;;;9.08;8.20;;;;;;;30.58;100.00;98345.39;2063001;86;21100;-89
2022/08/20 10:13:47;;;;;;;8.78;8.08;;;;;;;30.69;100.00;98338.57;2062703;86;21010;-89
2022/08/20 10:16:48;;;;;;;8.83;7.37;;;;;;;30.83;100.00;98343.80;2063050;85;21081;-85
2022/08/20 10:19:49;;;;;;;8.78;7.80;;;;;;;30.95;100.00;98343.92;2161261;81;21069;-86
2022/08/20 10:22:49;;;;;;;7.87;7.22;;;;;;;31.11;100.00;98338.23;2184936;81;21018;-84
2022/08/20 10:25:53;;;;;;;11.53;7.35;;;;;;;31.23;100.00;98338.94;2176221;81;21052;-85
2022/08/20 10:28:53;;;;;;;9.48;8.28;;;;;;;31.29;100.00;98336.30;2164461;82;21600;-88
2022/08/20 10:31:55;;;;;;;14.80;8.20;;;;;;;31.46;100.00;98333.29;2165308;82;21033;-87
2022/08/20 10:34:56;;;;;;;10.30;7.80;;;;;;;31.62;100.00;98330.23;2165646;82;20986;-88
2022/08/20 10:37:57;;;;;;;8.80;7.70;;;;;;;31.70;100.00;98337.52;2169156;81;21066;-85
2022/08/20 10:40:58;;;;;;;9.75;8.65;;;;;;;31.72;100.00;98329.86;2185901;81;21568;-86
2022/08/20 10:43:59;;;;;;;9.48;8.00;;;;;;;31.73;100.00;98327.41;2185752;81;21037;-87
2022/08/20 10:47:00;;;;;;;8.28;6.50;;;;;;;31.74;100.00;98335.76;2185573;81;21034;-89
2022/08/20 10:50:01;;;;;;;7.70;6.70;;;;;;;31.64;100.00;98327.45;2185658;81;21077;-87
2022/08/20 10:53:04;;;;;;;7.65;6.95;;;;;;;31.51;100.00;98331.73;2185392;81;20990;-87
2022/08/20 10:56:04;;;;;;;7.22;6.45;;;;;;;31.51;100.00;98335.23;2185167;81;21540;-88
2022/08/20 10:59:05;;;;;;;8.20;7.40;;;;;;;31.50;100.00;98328.80;2185534;80;21033;-86
2022/08/20 11:02:06;;;;;;;14.23;7.08;;;;;;;31.47;100.00;98328.91;2185131;81;20983;-84
2022/08/20 11:05:06;;;;;;;7.22;6.55;;;;;;;31.54;100.00;98327.80;2185431;81;21148;-87
2022/08/20 11:08:07;;;;;;;7.47;6.65;;;;;;;31.61;100.00;98319.98;2185404;81;21081;-87
2022/08/20 11:11:08;;;;;;;7.22;6.45;;;;;;;31.71;100.00;98321.52;2185596;80;21059;-88
2022/08/20 11:14:10;;;;;;;8.63;6.75;;;;;;;31.88;100.00;98314.66;2185133;81;21593;-88
2022/08/20 11:17:12;;;;;;;7.30;6.70;;;;;;;32.00;100.00;98307.17;2184699;81;21378;-89
2022/08/20 11:20:13;;;;;;;7.78;7.00;;;;;;;32.05;100.00;98313.75;2185468;81;21000;-88
2022/08/20 11:23:14;;;;;;;8.18;6.72;;;;;;;32.12;95.59;98304.55;2185853;81;21006;-88
2022/08/20 11:26:16;;;;;;;13.95;7.08;;;;;;;32.25;95.92;98305.39;2185333;81;21185;-89
2022/08/20 11:29:17;;;;;;;8.53;5.37;;;;;;;32.34;89.72;98298.57;2186122;81;21485;-89
2022/08/20 11:32:18;;;;;;;10.03;7.17;;;;;;;32.33;59.04;98291.58;2185958;81;20990;-86
2022/08/20 11:35:22;;;;;;;11.88;6.12;;;;;;;32.40;58.13;98292.63;2185755;81;21100;-88
2022/08/20 11:38:21;;;;;;;7.80;6.33;;;;;;;32.53;55.15;98300.22;2185425;80;21476;-90
2022/08/20 11:41:22;;;;;;;8.13;7.30;;;;;;;32.64;53.71;98295.17;2185828;80;21041;-88
2022/08/20 11:44:23;;;;;;;8.10;7.30;;;;;;;32.77;56.27;98287.31;2177339;81;20944;-85
2022/08/20 11:47:26;;;;;;;11.90;7.97;;;;;;;32.73;58.03;98295.30;2176931;81;21025;-85
2022/08/20 11:50:26;;;;;;;8.98;7.78;;;;;;;32.61;59.48;98293.14;2185212;80;21078;-84
2022/08/20 11:53:27;;;;;;;11.22;8.05;;;;;;;32.43;59.83;98299.28;2185156;81;20981;-88
2022/08/20 11:56:31;;;;;;;8.55;7.67;;;;;;;32.15;60.39;98298.46;2185175;81;21024;-85
2022/08/20 11:59:32;;;;;;;8.93;7.95;;;;;;;31.87;60.53;98288.73;2178743;81;21107;-87
2022/08/20 12:02:35;;;;;;;9.53;8.08;;;;;;;31.65;61.94;98285.75;2184953;80;20997;-86
2022/08/20 12:05:36;;;;;;;11.00;8.38;;;;;;;31.49;61.89;98286.08;2185288;81;20982;-89
2022/08/20 12:08:36;;;;;;;8.78;7.95;;;;;;;31.29;61.95;98282.21;2185425;81;21058;-87
2022/08/20 12:11:37;;;;;;;9.60;7.72;;;;;;;31.20;63.04;98277.94;2185426;81;21521;-86
2022/08/20 12:14:38;;;;;;;12.45;8.90;;;;;;;31.15;62.05;98272.14;2185357;81;21025;-87
2022/08/20 12:17:42;;;;;;;8.78;8.08;;;;;;;31.27;63.30;98276.88;2185433;81;21071;-84
2022/08/20 12:20:42;;;;;;;10.30;6.85;;;;;;;31.25;65.09;98269.09;2185426;81;21046;-86
2022/08/20 12:23:43;;;;;;;11.75;7.60;;;;;;;31.19;62.16;98269.59;2185265;81;21033;-85
2022/08/20 12:26:44;;;;;;;11.18;8.10;;;;;;;31.10;63.44;98270.98;2185249;81;21014;-83
2022/08/20 12:29:45;;;;;;;8.58;7.78;;;;;;;30.96;63.41;98268.48;2184841;81;21560;-83
2022/08/20 12:32:53;;;;;;;10.58;7.95;;;;;;;30.76;63.89;98269.19;2185213;81;21458;-83
2022/08/20 12:35:50;;;;;;;10.72;8.63;;;;;;;30.59;64.56;98263.23;2170014;81;21568;-84
2022/08/20 12:38:53;;;;;;;10.93;8.63;;;;;;;30.40;64.96;98267.64;2147864;83;21045;-82
2022/08/20 12:42:05;;;;;;;;;;;;;;;;;;;;;
2022/08/20 12:44:59;;;;;;;12.40;8.48;;;;;;;30.26;65.99;98251.61;2177914;80;21074;-83
2022/08/20 12:48:00;;;;;;;9.03;7.75;;;;;;;30.27;65.11;98245.12;2184868;81;21008;-86
2022/08/20 12:51:02;;;;;;;11.50;8.45;;;;;;;30.25;64.98;98247.88;2153442;81;21586;-87
2022/08/20 12:54:06;;;;;;;8.78;7.72;;;;;;;30.23;64.87;98246.86;2185239;81;20981;-84
2022/08/20 12:57:06;;;;;;;8.20;7.40;;;;;;;30.26;64.62;98248.91;2185065;81;20986;-85
2022/08/20 13:00:13;;;;;;;14.63;11.50;;;;;;;30.36;64.22;98259.14;2185048;81;21017;-87
2022/08/20 13:03:14;;;;;;;;;;;;;;;30.33;64.39;98263.84;2187070;81;21061;-87
2022/08/20 13:06:15;;;;;;;9.60;7.87;;;;;;;30.32;64.52;98267.09;2185227;81;20134;-86
2022/08/20 13:09:16;;;;;;;9.15;6.75;;;;;;;30.21;62.71;98270.69;2185056;80;21455;-90
2022/08/20 13:12:16;;;;;;;9.48;7.47;;;;;;;30.20;62.92;98263.70;2184832;81;21022;-86
2022/08/20 13:15:20;;;;;;;8.80;7.70;;;;;;;30.20;63.17;98268.31;2185006;81;21459;-86
2022/08/20 13:18:20;;;;;;;8.63;7.60;;;;;;;30.18;62.96;98278.08;2179344;81;20985;-85
2022/08/20 13:21:28;;;;;;;9.13;8.15;;;;;;;30.17;63.18;98279.72;2185203;81;21028;-84
2022/08/20 13:24:25;;;;;;;13.78;8.98;;;;;;;30.20;64.08;98281.25;2182912;81;20993;-85
2022/08/20 13:27:28;;;;;;;8.18;7.25;;;;;;;30.15;63.05;98295.45;2184093;81;21084;-86
2022/08/20 13:30:36;;;;;;;7.50;6.75;;;;;;;30.13;62.21;98298.48;2184644;81;21048;-86
2022/08/20 13:33:31;;;;;;;8.90;7.55;;;;;;;30.06;62.11;98304.07;2182835;81;21537;-84
2022/08/20 13:36:42;;;;;;;;;;;;;;;;;;;;;
2022/08/20 13:39:34;;;;;;;12.60;7.90;;;;;;;29.99;62.04;98308.58;2181079;81;21064;-86
2022/08/20 13:42:35;;;;;;;9.48;7.08;;;;;;;29.97;62.24;98310.81;2184786;81;21505;-86
2022/08/20 13:45:36;;;;;;;8.20;7.25;;;;;;;29.94;61.59;98316.30;2184849;81;21040;-86
2022/08/20 13:48:38;;;;;;;8.95;7.62;;;;;;;29.96;62.24;98311.37;2180559;81;21119;-86
2022/08/20 13:51:44;;;;;;;8.33;7.42;;;;;;;29.95;61.94;98320.58;2184579;81;21679;-88
2022/08/20 13:54:46;;;;;;;15.53;7.45;;;;;;;29.95;61.98;98329.23;2184742;80;21072;-86
2022/08/20 13:57:50;;;;;;;7.62;6.95;;;;;;;29.88;62.58;98321.59;2184921;81;21509;-85
2022/08/20 14:00:54;;;;;;;8.05;7.00;;;;;;;29.81;62.88;98321.81;2185023;81;21085;-85
2022/08/20 14:03:55;;;;;;;10.72;8.95;;;;;;;29.69;63.53;98325.92;2153775;81;21001;-86
2022/08/20 14:06:58;;;;;;;10.18;8.85;;;;;;;29.57;63.74;98320.91;2185635;81;21679;-86
2022/08/20 14:09:59;;;;;;;8.80;7.28;;;;;;;29.52;64.49;98323.17;2185051;81;21549;-86
2022/08/20 14:13:00;;;;;;;10.70;6.87;;;;;;;29.55;64.56;98313.69;2185234;80;21013;-84